Atlantic City, NJ

11:20 AM EST on November 26, 2014 (GMT -0500)
Miller | Change Station
CLOSE
Current Station
Airport
Location: Toms River,
Elevation: 82 ft
Nearby Weather Stations

Elev 82 ft 39.93 °N, 74.29 °W | Updated 5 minutes ago

Rain
Rain
37 °F
Feels Like 32 °F
N
7
Wind Variable Wind from NNE

Today
High -- | Low -- °F
--% Chance of Precip.
Yesterday
High -- | Low -- °F
Precip. -- in
6:53 AM 4:36 PM
Waxing Crescent, 20% visible
Pressure 29.98 in
Visibility 5.0 miles
Clouds Overcast 600 ft
Windchill 32 °F
Dew Point 36 °F
Humidity 93%
Rainfall 0.00 in
Snow Depth Not available.
UV 1 out of 12
Pollen .10 out of 12
Air Quality Not available.
Flu Activity Not available.
METAR KMJX 261615Z AUTO 02006KT 5SM OVC006 03/02 A2998 RMK AO1

More Conditions Fewer Conditions

Pressure 29.98 in
Visibility 5.0 miles
Clouds Overcast 600 ft
Windchill 32 °F
Dew Point 36 °F
Humidity 93%
Rainfall 0.00 in
Snow Depth Not available.
UV 1 out of 12
Pollen .10 out of 12
Air Quality Not available.
Flu Activity Not available.
METAR KMJX 261615Z AUTO 02006KT 5SM OVC006 03/02 A2998 RMK AO1

More Conditions Fewer Conditions

Nowcast | as of 8:30 am EST on November 26, 2014

Light to moderate rain will continue across the area through the morning hours, with periods of heavier rain possible. Temperatures in the lower to mid 40s now are expected to remain fairly steady through the morning hours. Northeast winds around 10 to 15 mph with gusts around 20 to 25 mph will continue as well. Drivers are urged to use caution and be alert for changing weather conditions and roadway conditions.

×

10-Day Weather Forecast

Almanac

Astronomy

Nov. 26, 2014 Rise Set
Actual Time
Civil Twilight
Nautical Twilight
Astronomical Twilight
Moon
Length of Visible Light
Length of Day
Tomorrow will be .
, % of the Moon is Illuminated

Today's Extremes

State Highs State Lows

Community

WunderPhotos

Upload Photos

1,773,784 photos uploaded!

WunderBlogs® & News

Nearby

Air Quality

  Air Quality AQ Index Pollutant
Not available.

Snow Depth

Station Depth Elevation

Earthquake Activity

City Distance Mag. Time & Date
Minimum magnitude displayed is 2.5.

Coastal Water Temperatures

Place Temperature

Nearby Weather Stations